Time;durP1;ratioP1;P1;durP2;ratioP2;P2;SDS_P1;SDS_P2;PMS_P1;PMS_P2;Temp;Humidity;BMP_temperature;BMP_pressure;BME280_temperature;BME280_humidity;BME280_pressure;Samples;Min_cycle;Max_cycle;Signal;HPM_P1;HPM_P2
2024/01/26 00:00:22;;;;;;;6.80;0.90;;;37.50;47.60;;;;;;4955389;28;20031;-69
2024/01/26 00:02:50;;;;;;;6.18;1.00;;;37.40;47.20;;;;;;4948107;28;20023;-69
2024/01/26 00:05:17;;;;;;;4.85;1.20;;;37.30;46.80;;;;;;4947977;28;20046;-69
2024/01/26 00:07:44;;;;;;;7.57;1.00;;;37.30;46.70;;;;;;4941215;28;20030;-69
2024/01/26 00:10:12;;;;;;;8.88;1.02;;;37.20;47.30;;;;;;4953121;28;20406;-69
2024/01/26 00:12:39;;;;;;;6.72;0.93;;;37.30;46.90;;;;;;4944073;29;20083;-70
2024/01/26 00:15:07;;;;;;;6.43;0.85;;;37.30;46.30;;;;;;4940249;29;20106;-70
2024/01/26 00:17:34;;;;;;;6.95;0.80;;;37.30;46.20;;;;;;4935902;29;20034;-69
2024/01/26 00:20:05;;;;;;;3.55;1.05;;;37.40;46.20;;;;;;4936005;29;20040;-70
2024/01/26 00:22:33;;;;;;;6.25;1.13;;;37.50;46.00;;;;;;4936501;29;20130;-70
2024/01/26 00:25:00;;;;;;;10.13;1.02;;;37.70;45.80;;;;;;4954757;28;20024;-72
2024/01/26 00:27:28;;;;;;;3.55;1.08;;;37.80;45.90;;;;;;4943337;28;20031;-70
2024/01/26 00:29:55;;;;;;;5.47;1.52;;;38.00;45.50;;;;;;4941709;28;20038;-69
2024/01/26 00:32:22;;;;;;;3.25;0.77;;;38.20;45.00;;;;;;4942787;29;20516;-70
2024/01/26 00:34:50;;;;;;;4.38;0.93;;;38.30;45.10;;;;;;4935397;29;20546;-70
2024/01/26 00:37:17;;;;;;;4.20;1.00;;;38.60;45.70;;;;;;4947078;28;20032;-70
2024/01/26 00:39:44;;;;;;;5.47;1.00;;;38.90;45.60;;;;;;4939052;29;20036;-70
2024/01/26 00:42:12;;;;;;;4.80;1.00;;;39.20;45.60;;;;;;4941323;29;20110;-71
2024/01/26 00:44:39;;;;;;;5.38;1.20;;;39.50;44.80;;;;;;4935972;29;20023;-71
2024/01/26 00:47:07;;;;;;;5.25;0.70;;;39.60;45.30;;;;;;4940409;29;20036;-71
2024/01/26 00:49:34;;;;;;;7.57;1.77;;;39.60;43.70;;;;;;4939318;29;20042;-71
2024/01/26 00:52:01;;;;;;;5.75;1.33;;;39.30;44.70;;;;;;4942340;29;20090;-71
2024/01/26 00:54:29;;;;;;;5.55;1.02;;;39.20;44.90;;;;;;4936621;28;20401;-71
2024/01/26 00:56:56;;;;;;;5.00;0.90;;;39.50;44.50;;;;;;4943940;28;20035;-71
2024/01/26 00:59:24;;;;;;;5.75;1.20;;;39.60;44.20;;;;;;4943427;29;20110;-71
2024/01/26 01:01:51;;;;;;;5.65;0.68;;;39.40;44.90;;;;;;4940229;28;20362;-70
2024/01/26 01:04:19;;;;;;;4.93;0.88;;;39.40;44.10;;;;;;4935404;28;20035;-70
2024/01/26 01:06:49;;;;;;;5.30;1.23;;;39.20;44.60;;;;;;4944254;28;20464;-70
2024/01/26 01:09:17;;;;;;;6.40;1.23;;;39.20;44.00;;;;;;4938010;28;20347;-70
2024/01/26 01:11:45;;;;;;;6.03;0.80;;;39.20;43.90;;;;;;4935980;29;20047;-70
2024/01/26 01:14:13;;;;;;;4.28;0.98;;;39.10;44.50;;;;;;4938498;29;20031;-70
2024/01/26 01:16:41;;;;;;;4.07;0.90;;;39.10;44.90;;;;;;4936053;28;20043;-70
2024/01/26 01:19:10;;;;;;;3.88;0.80;;;39.30;44.30;;;;;;4935289;29;20045;-71
2024/01/26 01:21:37;;;;;;;4.45;0.80;;;39.40;44.60;;;;;;4938905;29;20106;-70
2024/01/26 01:24:05;;;;;;;6.47;1.20;;;39.70;44.70;;;;;;4942545;28;20071;-70
2024/01/26 01:26:33;;;;;;;3.80;1.08;;;39.90;45.00;;;;;;4941550;29;20087;-71
2024/01/26 01:29:00;;;;;;;5.85;1.20;;;39.70;44.60;;;;;;4947449;29;20099;-71
2024/01/26 01:31:27;;;;;;;4.32;1.10;;;39.90;45.00;;;;;;4934670;29;20047;-71
2024/01/26 01:33:55;;;;;;;6.60;0.93;;;39.90;43.10;;;;;;4945492;29;20049;-71
2024/01/26 01:36:22;;;;;;;1.80;0.50;;;40.00;43.40;;;;;;4934811;28;20047;-70
2024/01/26 01:38:50;;;;;;;4.90;0.80;;;40.10;43.90;;;;;;4936881;28;20019;-71
2024/01/26 01:41:17;;;;;;;8.57;0.93;;;40.30;43.20;;;;;;4943530;28;20138;-73
2024/01/26 01:43:53;;;;;;;5.30;1.23;;;40.30;42.50;;;;;;4941730;28;20107;-71
2024/01/26 01:46:20;;;;;;;8.60;1.10;;;40.30;43.20;;;;;;4935164;29;20026;-71
2024/01/26 01:48:48;;;;;;;7.55;1.50;;;40.40;42.60;;;;;;4935828;28;20366;-71
2024/01/26 01:51:16;;;;;;;5.78;1.92;;;40.30;43.00;;;;;;4934228;28;20134;-71
2024/01/26 01:53:44;;;;;;;3.85;0.90;;;40.40;42.90;;;;;;4936897;29;20099;-71
2024/01/26 01:56:12;;;;;;;3.55;0.60;;;40.40;43.00;;;;;;4943998;28;20023;-71
2024/01/26 01:58:41;;;;;;;4.68;0.88;;;40.60;43.30;;;;;;4942956;28;20485;-71
2024/01/26 02:01:10;;;;;;;2.20;0.90;;;40.80;42.80;;;;;;4936696;29;20050;-70
2024/01/26 02:03:38;;;;;;;2.15;0.93;;;41.00;43.00;;;;;;4940746;28;20107;-70
2024/01/26 02:06:05;;;;;;;4.10;1.08;;;40.90;42.70;;;;;;4934152;29;20384;-71
2024/01/26 02:08:33;;;;;;;4.00;0.70;;;40.70;42.70;;;;;;4945767;29;20070;-70
2024/01/26 02:11:00;;;;;;;4.25;0.73;;;40.60;41.60;;;;;;4933763;29;20055;-71
2024/01/26 02:13:27;;;;;;;4.72;0.75;;;40.30;42.50;;;;;;4937490;29;20029;-69
2024/01/26 02:15:55;;;;;;;4.22;1.15;;;40.30;42.60;;;;;;4951694;28;20041;-71
2024/01/26 02:18:23;;;;;;;3.60;0.90;;;40.30;42.80;;;;;;4944908;28;20111;-69
2024/01/26 02:20:50;;;;;;;6.82;1.23;;;40.30;42.20;;;;;;4941482;28;20063;-71
2024/01/26 02:23:26;;;;;;;3.63;0.85;;;40.00;42.30;;;;;;4949116;29;20101;-71
2024/01/26 02:25:53;;;;;;;;;;;39.80;42.60;;;;;;4944625;28;20035;-70
2024/01/26 02:28:19;;;;;;;;;;;39.80;42.70;;;;;;4947634;28;19954;-71
2024/01/26 02:30:47;;;;;;;3.25;0.80;;;39.70;43.20;;;;;;4944879;29;19930;-71
2024/01/26 02:33:14;;;;;;;9.10;0.90;;;39.60;43.50;;;;;;4950324;28;20480;-72
2024/01/26 02:35:42;;;;;;;6.90;0.90;;;39.60;43.10;;;;;;4949367;28;20469;-71
2024/01/26 02:38:09;;;;;;;3.97;0.90;;;40.00;43.40;;;;;;4942286;28;20477;-71
2024/01/26 02:40:36;;;;;;;3.60;0.90;;;40.00;43.20;;;;;;4944698;29;20042;-70
2024/01/26 02:43:04;;;;;;;4.63;1.00;;;40.00;42.80;;;;;;4942228;29;20085;-71
2024/01/26 02:45:32;;;;;;;3.10;0.80;;;40.10;43.40;;;;;;4947088;29;20055;-71
2024/01/26 02:47:59;;;;;;;4.75;0.95;;;40.40;44.00;;;;;;4941178;29;20028;-70
2024/01/26 02:50:26;;;;;;;6.13;1.00;;;40.80;43.70;;;;;;4938751;29;20458;-70
2024/01/26 02:52:54;;;;;;;2.88;0.90;;;40.90;42.60;;;;;;4955432;28;20054;-71
2024/01/26 02:55:21;;;;;;;5.50;1.10;;;40.90;43.50;;;;;;4944147;29;20023;-71
2024/01/26 02:57:48;;;;;;;3.05;0.60;;;41.00;42.70;;;;;;4942287;29;20067;-76
2024/01/26 03:00:20;;;;;;;4.80;1.27;;;40.90;42.40;;;;;;4940008;29;20039;-72
2024/01/26 03:02:47;;;;;;;10.18;1.42;;;40.80;42.90;;;;;;4947069;29;20086;-70
2024/01/26 03:05:17;;;;;;;6.50;0.85;;;40.80;42.50;;;;;;4943313;29;20047;-70
2024/01/26 03:07:45;;;;;;;4.75;0.88;;;40.90;43.30;;;;;;4950399;29;20023;-71
2024/01/26 03:10:12;;;;;;;3.28;0.88;;;41.00;42.80;;;;;;4949951;29;20071;-71
2024/01/26 03:12:40;;;;;;;5.55;1.00;;;41.00;42.70;;;;;;4948185;29;20028;-72
2024/01/26 03:15:07;;;;;;;4.45;0.98;;;41.10;42.40;;;;;;4939790;29;20084;-72
2024/01/26 03:17:35;;;;;;;3.80;0.80;;;41.20;42.60;;;;;;4944219;28;20062;-71
2024/01/26 03:20:04;;;;;;;3.47;0.88;;;41.20;42.10;;;;;;4948422;29;20031;-71
2024/01/26 03:22:31;;;;;;;2.10;0.70;;;41.20;42.50;;;;;;4949966;28;20106;-72
2024/01/26 03:24:58;;;;;;;3.83;0.85;;;41.20;42.70;;;;;;4939989;29;20444;-71
2024/01/26 03:27:27;;;;;;;3.75;1.10;;;41.30;42.00;;;;;;4943057;28;20030;-72
2024/01/26 03:29:54;;;;;;;7.07;1.17;;;41.20;42.30;;;;;;4939822;28;20031;-72
2024/01/26 03:32:22;;;;;;;7.97;0.90;;;41.50;43.10;;;;;;4949563;28;20114;-72
2024/01/26 03:34:49;;;;;;;5.00;1.10;;;41.80;42.40;;;;;;4945774;28;20041;-72
2024/01/26 03:37:17;;;;;;;4.80;0.88;;;41.90;41.60;;;;;;4942882;28;20046;-72
2024/01/26 03:39:44;;;;;;;3.40;0.80;;;41.70;41.80;;;;;;4941469;28;20031;-72
2024/01/26 03:42:12;;;;;;;3.25;1.00;;;41.90;42.30;;;;;;4940577;28;20027;-71
2024/01/26 03:44:40;;;;;;;3.20;0.73;;;41.80;41.30;;;;;;4944276;28;20362;-72
2024/01/26 03:47:08;;;;;;;4.25;1.02;;;41.60;42.20;;;;;;4949217;28;20388;-72
2024/01/26 03:49:35;;;;;;;2.03;0.80;;;41.60;41.30;;;;;;4944415;28;20039;-71
2024/01/26 03:52:05;;;;;;;2.55;0.85;;;41.40;41.30;;;;;;4945990;28;20484;-73
2024/01/26 03:54:33;;;;;;;8.70;0.98;;;40.90;42.20;;;;;;4940145;28;20152;-72
2024/01/26 03:57:01;;;;;;;4.45;0.82;;;40.70;42.30;;;;;;4944372;28;20426;-72
2024/01/26 03:59:28;;;;;;;3.28;0.80;;;40.90;43.00;;;;;;4938770;28;20058;-72
2024/01/26 04:01:55;;;;;;;3.22;0.80;;;41.10;42.40;;;;;;4949689;28;20496;-72
2024/01/26 04:04:23;;;;;;;2.83;0.90;;;41.20;43.10;;;;;;4942061;28;20066;-73
2024/01/26 04:06:50;;;;;;;3.72;1.08;;;41.00;43.70;;;;;;4943296;28;20058;-73
2024/01/26 04:09:18;;;;;;;5.13;0.90;;;40.70;43.40;;;;;;4944250;29;20118;-71
2024/01/26 04:11:45;;;;;;;6.50;0.95;;;40.20;43.60;;;;;;4948749;28;20405;-72
2024/01/26 04:14:12;;;;;;;4.65;1.27;;;39.60;44.20;;;;;;4941737;28;20038;-71
2024/01/26 04:16:40;;;;;;;5.10;1.00;;;39.40;44.40;;;;;;4939496;28;20035;-72
2024/01/26 04:19:07;;;;;;;7.05;1.10;;;39.10;45.10;;;;;;4937364;28;20027;-72
2024/01/26 04:21:34;;;;;;;5.85;0.90;;;38.90;45.70;;;;;;4942437;28;20062;-72
2024/01/26 04:24:02;;;;;;;10.27;3.00;;;38.80;46.00;;;;;;4941150;28;20055;-71
2024/01/26 04:26:29;;;;;;;13.40;3.78;;;38.80;52.80;;;;;;4939981;28;20030;-72
2024/01/26 04:28:57;;;;;;;19.33;3.58;;;38.10;55.60;;;;;;4946154;28;20023;-72
2024/01/26 04:31:25;;;;;;;21.70;4.20;;;37.20;58.40;;;;;;4938001;28;20036;-74
2024/01/26 04:33:52;;;;;;;13.95;3.42;;;36.10;62.00;;;;;;4940085;28;20051;-71
2024/01/26 04:36:20;;;;;;;20.55;3.60;;;34.90;65.00;;;;;;4939391;28;20039;-71
2024/01/26 04:38:47;;;;;;;22.85;3.70;;;34.00;68.60;;;;;;4942734;28;20051;-71
2024/01/26 04:41:14;;;;;;;20.77;4.50;;;33.50;71.00;;;;;;4944461;28;20066;-72
2024/01/26 04:43:43;;;;;;;17.25;3.70;;;33.20;73.60;;;;;;4940288;28;20114;-71
2024/01/26 04:46:11;;;;;;;19.17;3.40;;;33.00;76.20;;;;;;4940727;28;20030;-72
2024/01/26 04:48:38;;;;;;;20.35;3.88;;;32.60;78.70;;;;;;4940338;28;20093;-72
2024/01/26 04:51:05;;;;;;;19.42;4.18;;;32.40;81.20;;;;;;4939626;28;20058;-72
2024/01/26 04:53:33;;;;;;;19.23;3.70;;;32.40;83.10;;;;;;4936733;28;20532;-73
2024/01/26 04:56:01;;;;;;;20.60;3.95;;;32.30;84.60;;;;;;4940656;28;20555;-72
2024/01/26 04:58:28;;;;;;;24.40;4.15;;;32.20;85.60;;;;;;4935192;28;20030;-71
2024/01/26 05:00:55;;;;;;;20.88;4.18;;;32.30;86.30;;;;;;4940592;28;20377;-71
2024/01/26 05:03:23;;;;;;;17.55;3.92;;;32.20;87.20;;;;;;4939908;28;20592;-71
2024/01/26 05:05:50;;;;;;;20.48;3.58;;;32.10;87.10;;;;;;4935843;28;20038;-71
2024/01/26 05:08:18;;;;;;;19.70;4.00;;;32.30;88.10;;;;;;4938407;28;20032;-70
2024/01/26 05:10:45;;;;;;;20.30;3.33;;;32.30;88.20;;;;;;4936888;28;20047;-70
2024/01/26 05:13:12;;;;;;;14.80;3.67;;;32.10;89.10;;;;;;4939562;28;20031;-70
2024/01/26 05:15:40;;;;;;;18.42;3.65;;;32.20;90.10;;;;;;4939709;28;20032;-70
2024/01/26 05:18:08;;;;;;;17.67;3.65;;;32.20;89.30;;;;;;4939037;28;20040;-71
2024/01/26 05:20:35;;;;;;;17.60;3.08;;;31.90;90.00;;;;;;4941311;28;20465;-72
2024/01/26 05:23:03;;;;;;;15.77;3.40;;;31.50;90.20;;;;;;4934596;28;20024;-71
2024/01/26 05:25:30;;;;;;;18.00;3.28;;;31.40;90.60;;;;;;4940781;28;20023;-71
2024/01/26 05:27:58;;;;;;;13.63;2.47;;;31.20;91.30;;;;;;4940390;28;21703;-71
2024/01/26 05:30:26;;;;;;;19.60;2.50;;;31.20;91.10;;;;;;4938632;28;20075;-72
2024/01/26 05:32:53;;;;;;;12.57;2.75;;;30.70;91.90;;;;;;4941220;28;20035;-73
2024/01/26 05:35:21;;;;;;;10.77;2.30;;;30.50;92.70;;;;;;4941958;28;20027;-73
2024/01/26 05:37:48;;;;;;;19.50;4.03;;;30.30;92.80;;;;;;4941741;28;20433;-73
2024/01/26 05:40:16;;;;;;;12.60;2.78;;;30.30;93.60;;;;;;4939410;28;20040;-71
2024/01/26 05:42:43;;;;;;;10.55;2.70;;;30.60;93.40;;;;;;4936669;28;20027;-72
2024/01/26 05:45:11;;;;;;;17.55;3.15;;;31.20;92.90;;;;;;4940674;28;20023;-73
2024/01/26 05:47:38;;;;;;;14.23;2.75;;;31.60;92.30;;;;;;4940788;28;20043;-72
2024/01/26 05:50:06;;;;;;;14.27;3.22;;;31.80;91.50;;;;;;4947959;28;20074;-72
2024/01/26 05:52:33;;;;;;;17.42;3.50;;;31.70;91.50;;;;;;4944008;28;20055;-73
2024/01/26 05:55:01;;;;;;;13.70;2.78;;;31.50;91.60;;;;;;4938744;28;20027;-72
2024/01/26 05:57:28;;;;;;;19.27;3.72;;;31.00;92.10;;;;;;4935779;28;20079;-72
2024/01/26 05:59:55;;;;;;;21.83;3.50;;;30.70;92.60;;;;;;4938183;28;20032;-72
2024/01/26 06:02:22;;;;;;;12.60;2.33;;;30.70;92.80;;;;;;4940136;28;20508;-71
2024/01/26 06:04:50;;;;;;;23.67;3.60;;;30.40;93.10;;;;;;4935611;28;20035;-71
2024/01/26 06:07:17;;;;;;;24.20;3.33;;;30.20;94.00;;;;;;4940959;28;20103;-71
2024/01/26 06:09:44;;;;;;;15.77;3.20;;;30.20;94.10;;;;;;4947203;28;20035;-72
2024/01/26 06:12:12;;;;;;;16.48;3.63;;;29.90;94.10;;;;;;4942529;28;20539;-71
2024/01/26 06:14:39;;;;;;;19.67;3.80;;;29.80;94.60;;;;;;4935086;28;20032;-70
2024/01/26 06:17:06;;;;;;;18.70;3.83;;;29.70;95.00;;;;;;4934193;28;20102;-70
2024/01/26 06:19:34;;;;;;;16.65;3.47;;;29.80;94.70;;;;;;4934719;29;20451;-71
2024/01/26 06:22:01;;;;;;;14.52;3.05;;;29.70;94.80;;;;;;4934434;29;20091;-70
2024/01/26 06:24:28;;;;;;;16.67;3.20;;;29.40;95.20;;;;;;4940514;28;20032;-70
2024/01/26 06:26:56;;;;;;;14.50;3.20;;;29.30;95.50;;;;;;4945215;28;20061;-70
2024/01/26 06:29:23;;;;;;;22.73;4.43;;;29.20;95.80;;;;;;4941233;28;20035;-71
2024/01/26 06:31:50;;;;;;;26.55;4.57;;;29.10;96.20;;;;;;4935739;28;20074;-71
2024/01/26 06:34:18;;;;;;;15.43;3.53;;;29.00;96.30;;;;;;4938070;28;20050;-72
2024/01/26 06:36:46;;;;;;;18.65;3.45;;;28.90;96.40;;;;;;4942392;28;20042;-71
2024/01/26 06:39:13;;;;;;;24.35;3.90;;;28.50;96.90;;;;;;4940570;28;20028;-71
2024/01/26 06:41:44;;;;;;;19.40;4.78;;;28.30;97.60;;;;;;4937748;29;20118;-72
2024/01/26 06:44:14;;;;;;;23.10;4.78;;;28.10;97.80;;;;;;4947432;28;20473;-71
2024/01/26 06:46:41;;;;;;;22.65;5.32;;;28.00;98.20;;;;;;4938546;28;20091;-71
2024/01/26 06:49:10;;;;;;;22.38;5.05;;;28.00;98.30;;;;;;4947340;28;20579;-71
2024/01/26 06:51:37;;;;;;;20.55;5.47;;;28.00;98.10;;;;;;4946604;28;20400;-70
2024/01/26 06:54:05;;;;;;;21.05;6.03;;;28.20;98.00;;;;;;4934789;28;20079;-71
2024/01/26 06:56:32;;;;;;;23.27;6.18;;;28.50;98.10;;;;;;4939808;28;20023;-70
2024/01/26 06:58:59;;;;;;;26.83;6.68;;;28.50;97.70;;;;;;4934720;28;20024;-70
2024/01/26 07:01:27;;;;;;;21.42;6.60;;;28.40;97.30;;;;;;4939192;28;20043;-73
2024/01/26 07:03:54;;;;;;;25.15;6.68;;;28.10;97.30;;;;;;4952481;28;20066;-73
2024/01/26 07:06:22;;;;;;;22.98;6.43;;;28.10;97.20;;;;;;4952847;28;20059;-73
2024/01/26 07:08:49;;;;;;;27.67;7.30;;;28.00;97.10;;;;;;4937619;29;20023;-72
2024/01/26 07:11:18;;;;;;;16.67;5.78;;;27.90;97.20;;;;;;4943311;28;20519;-73
2024/01/26 07:13:45;;;;;;;14.63;4.95;;;27.60;97.30;;;;;;4947905;28;20118;-72
2024/01/26 07:16:13;;;;;;;24.17;5.35;;;27.40;97.60;;;;;;4944688;28;20393;-72
2024/01/26 07:18:40;;;;;;;27.27;5.47;;;27.20;97.90;;;;;;4942353;28;20028;-72
2024/01/26 07:21:08;;;;;;;23.98;5.03;;;27.20;97.90;;;;;;4940613;28;20035;-72
2024/01/26 07:23:38;;;;;;;19.42;4.88;;;26.90;98.30;;;;;;4939795;28;20449;-73
2024/01/26 07:26:07;;;;;;;17.30;5.00;;;26.70;98.40;;;;;;4939579;28;20039;-72
2024/01/26 07:28:34;;;;;;;17.70;5.57;;;26.60;98.70;;;;;;4944916;28;20028;-72
2024/01/26 07:31:02;;;;;;;23.45;5.00;;;26.50;98.90;;;;;;4938389;28;20039;-74
2024/01/26 07:33:29;;;;;;;21.92;5.00;;;26.30;99.10;;;;;;4944907;28;20019;-72
2024/01/26 07:35:56;;;;;;;18.55;4.88;;;26.30;99.20;;;;;;4937714;28;20066;-72
2024/01/26 07:38:23;;;;;;;18.63;4.95;;;26.30;99.30;;;;;;4938786;28;20469;-72
2024/01/26 07:40:51;;;;;;;18.08;4.43;;;26.20;99.50;;;;;;4936480;28;20106;-72
2024/01/26 07:43:18;;;;;;;22.20;5.03;;;26.20;99.50;;;;;;4944563;28;20035;-72
2024/01/26 07:45:45;;;;;;;24.13;5.15;;;26.10;99.40;;;;;;4938699;28;20489;-73
2024/01/26 07:48:13;;;;;;;19.88;5.00;;;26.00;99.70;;;;;;4943090;28;20023;-72
2024/01/26 07:50:43;;;;;;;15.82;4.30;;;26.00;99.80;;;;;;4936567;29;20126;-72
2024/01/26 07:53:11;;;;;;;21.63;4.63;;;26.00;99.90;;;;;;4945845;28;20040;-72
2024/01/26 07:55:40;;;;;;;18.80;5.05;;;26.00;99.70;;;;;;4936896;29;20110;-72
2024/01/26 07:58:07;;;;;;;20.92;5.32;;;25.90;99.90;;;;;;4942700;28;20110;-74
2024/01/26 08:00:34;;;;;;;20.88;4.78;;;25.70;99.90;;;;;;4936407;29;20467;-72
2024/01/26 08:03:02;;;;;;;20.20;5.00;;;25.60;99.90;;;;;;4943178;28;20032;-72
2024/01/26 08:05:29;;;;;;;26.52;4.47;;;25.40;99.90;;;;;;4942314;28;20034;-71
2024/01/26 08:07:56;;;;;;;21.45;4.57;;;25.40;99.90;;;;;;4943191;28;20063;-72
2024/01/26 08:10:24;;;;;;;19.38;5.05;;;25.40;99.90;;;;;;4942336;28;20035;-73
2024/01/26 08:12:51;;;;;;;22.40;4.13;;;25.50;99.90;;;;;;4936873;28;20462;-72
2024/01/26 08:15:18;;;;;;;16.38;3.83;;;25.50;99.90;;;;;;4944943;28;20032;-72
2024/01/26 08:17:47;;;;;;;15.65;3.22;;;25.50;99.90;;;;;;4945832;28;20080;-72
2024/01/26 08:20:15;;;;;;;15.45;4.60;;;25.40;99.90;;;;;;4947897;28;20023;-73
2024/01/26 08:22:43;;;;;;;17.30;3.75;;;25.40;99.90;;;;;;4936508;28;20028;-73
2024/01/26 08:25:10;;;;;;;17.98;4.45;;;25.50;99.90;;;;;;4936285;28;20028;-72
2024/01/26 08:27:38;;;;;;;18.27;4.03;;;25.50;99.90;;;;;;4946118;28;20480;-72
2024/01/26 08:30:06;;;;;;;16.08;4.10;;;25.50;99.90;;;;;;4942170;28;20020;-72
2024/01/26 08:32:34;;;;;;;24.58;4.97;;;25.40;99.90;;;;;;4937902;29;20036;-72
2024/01/26 08:35:01;;;;;;;20.58;3.75;;;25.30;99.90;;;;;;4939486;28;20031;-72
2024/01/26 08:37:28;;;;;;;21.95;4.75;;;25.30;99.90;;;;;;4938229;28;20031;-71
2024/01/26 08:39:57;;;;;;;17.63;3.88;;;25.30;99.90;;;;;;4937490;28;20148;-71
2024/01/26 08:42:24;;;;;;;22.35;4.53;;;25.30;99.90;;;;;;4952035;29;20035;-72
2024/01/26 08:44:52;;;;;;;23.92;5.93;;;25.30;99.90;;;;;;4958574;28;20031;-72
2024/01/26 08:47:19;;;;;;;18.40;4.38;;;25.30;99.90;;;;;;4941059;28;20027;-72
2024/01/26 08:49:46;;;;;;;19.63;3.70;;;25.40;99.90;;;;;;4936288;29;20035;-72
2024/01/26 08:52:14;;;;;;;25.27;4.47;;;25.40;99.90;;;;;;4938871;28;20050;-71
2024/01/26 08:54:41;;;;;;;18.88;4.60;;;25.30;99.90;;;;;;4948736;28;20114;-71
2024/01/26 08:57:08;;;;;;;24.23;4.35;;;25.30;99.90;;;;;;4940290;28;20034;-71
2024/01/26 08:59:36;;;;;;;18.70;4.15;;;25.30;99.90;;;;;;4937426;28;20041;-72
2024/01/26 09:02:04;;;;;;;20.00;4.80;;;25.40;99.90;;;;;;4945996;28;20031;-72
2024/01/26 09:04:31;;;;;;;26.23;4.80;;;25.20;99.90;;;;;;4935322;29;20020;-71
2024/01/26 09:06:58;;;;;;;18.95;4.55;;;25.30;99.90;;;;;;4955263;28;20059;-72
2024/01/26 09:09:26;;;;;;;27.70;4.25;;;25.30;99.90;;;;;;4937710;28;20456;-72
2024/01/26 09:11:54;;;;;;;20.50;4.07;;;25.20;99.90;;;;;;4949727;28;20063;-71
2024/01/26 09:14:21;;;;;;;25.55;4.50;;;25.10;99.90;;;;;;4944358;28;20091;-72
2024/01/26 09:16:52;;;;;;;24.58;4.50;;;25.10;99.90;;;;;;4943439;28;20054;-72
2024/01/26 09:19:20;;;;;;;22.67;4.05;;;25.00;99.90;;;;;;4936651;29;20036;-71
2024/01/26 09:21:47;;;;;;;26.00;3.58;;;25.00;99.90;;;;;;4939864;28;20473;-72
2024/01/26 09:24:15;;;;;;;23.48;4.43;;;24.90;99.90;;;;;;4940545;29;20082;-72
2024/01/26 09:26:42;;;;;;;17.23;3.70;;;24.70;99.90;;;;;;4938566;28;20483;-71
2024/01/26 09:29:09;;;;;;;26.38;4.30;;;24.70;99.90;;;;;;4944161;28;20062;-71
2024/01/26 09:31:37;;;;;;;30.80;3.92;;;24.70;99.90;;;;;;4947520;28;20854;-71
2024/01/26 09:34:06;;;;;;;22.55;3.80;;;24.60;99.90;;;;;;4947795;29;20473;-72
2024/01/26 09:36:34;;;;;;;24.25;5.30;;;24.50;99.90;;;;;;4935227;28;20027;-72
2024/01/26 09:39:01;;;;;;;22.77;3.97;;;24.50;99.90;;;;;;4937542;28;20041;-71
2024/01/26 09:41:29;;;;;;;29.17;4.60;;;24.60;99.90;;;;;;4945578;28;20020;-72
2024/01/26 09:43:56;;;;;;;20.85;4.18;;;24.60;99.90;;;;;;4935390;28;20082;-71
2024/01/26 09:46:24;;;;;;;16.33;3.50;;;24.50;99.90;;;;;;4941757;28;20053;-72
2024/01/26 09:48:56;;;;;;;23.75;3.88;;;24.50;99.90;;;;;;4940806;29;20116;-72
2024/01/26 09:51:24;;;;;;;24.70;4.05;;;24.50;99.70;;;;;;4946472;28;20045;-73
2024/01/26 09:53:56;;;;;;;21.70;3.28;;;24.50;99.60;;;;;;4939480;28;20051;-72
2024/01/26 09:56:24;;;;;;;26.33;3.70;;;24.50;99.80;;;;;;4940932;28;20023;-72
2024/01/26 09:58:51;;;;;;;19.17;3.67;;;24.40;99.60;;;;;;4949591;28;20441;-72
2024/01/26 10:01:22;;;;;;;22.15;4.15;;;24.40;99.80;;;;;;4939814;28;20028;-72
2024/01/26 10:03:53;;;;;;;20.75;3.67;;;24.40;99.90;;;;;;4941746;28;20038;-72
2024/01/26 10:06:21;;;;;;;19.40;4.63;;;24.50;99.80;;;;;;4935723;28;20424;-72
2024/01/26 10:08:48;;;;;;;22.02;4.32;;;24.60;99.30;;;;;;4941458;28;20039;-72
2024/01/26 10:11:16;;;;;;;26.30;4.05;;;24.60;99.40;;;;;;4941829;28;20054;-72
2024/01/26 10:13:44;;;;;;;21.60;3.83;;;24.60;99.30;;;;;;4937937;28;20660;-72
2024/01/26 10:16:13;;;;;;;20.05;3.60;;;24.60;99.10;;;;;;4937433;28;20020;-72
2024/01/26 10:18:45;;;;;;;20.08;3.67;;;24.40;99.50;;;;;;4938637;28;20099;-72
2024/01/26 10:21:14;;;;;;;16.13;3.72;;;24.30;99.50;;;;;;4935000;28;20061;-72
2024/01/26 10:23:42;;;;;;;24.25;4.13;;;24.30;99.70;;;;;;4937120;28;20027;-72
2024/01/26 10:26:10;;;;;;;20.42;3.55;;;24.40;99.40;;;;;;4940503;28;20448;-72
2024/01/26 10:28:38;;;;;;;27.52;4.55;;;24.40;99.40;;;;;;4940731;29;20032;-72
2024/01/26 10:31:05;;;;;;;20.65;3.90;;;24.30;99.30;;;;;;4944965;28;20032;-72
2024/01/26 10:33:34;;;;;;;22.02;3.58;;;24.30;99.40;;;;;;4940121;28;20157;-72
2024/01/26 10:36:02;;;;;;;24.63;3.65;;;24.50;99.10;;;;;;4937424;28;20369;-72
2024/01/26 10:38:30;;;;;;;34.33;4.00;;;24.60;99.10;;;;;;4938577;28;20042;-72
2024/01/26 10:41:04;;;;;;;21.65;3.88;;;24.60;99.00;;;;;;4944369;28;20032;-71
2024/01/26 10:43:33;;;;;;;28.75;4.10;;;24.60;99.00;;;;;;4938869;28;20129;-72
2024/01/26 10:46:02;;;;;;;22.50;3.60;;;24.50;99.10;;;;;;4938221;28;20023;-72
2024/01/26 10:48:30;;;;;;;30.50;3.90;;;24.40;99.00;;;;;;4939782;28;20023;-72
2024/01/26 10:50:58;;;;;;;39.42;4.30;;;24.50;99.00;;;;;;4943246;28;20138;-72
2024/01/26 10:53:27;;;;;;;22.55;4.38;;;24.40;99.10;;;;;;4941218;28;20058;-71
2024/01/26 10:55:55;;;;;;;24.40;3.80;;;24.40;99.10;;;;;;4949437;28;20036;-72
2024/01/26 10:58:22;;;;;;;23.05;3.97;;;24.30;99.20;;;;;;4938307;28;20029;-72
2024/01/26 11:00:50;;;;;;;23.10;3.53;;;24.40;99.10;;;;;;4943030;28;20533;-72
2024/01/26 11:03:18;;;;;;;28.92;4.63;;;24.30;99.30;;;;;;4938495;28;21406;-72
2024/01/26 11:05:50;;;;;;;23.98;3.70;;;24.40;99.10;;;;;;4941453;29;20067;-72
2024/01/26 11:08:29;;;;;;;24.33;3.83;;;24.40;99.00;;;;;;4941072;29;20396;-72
2024/01/26 11:10:57;;;;;;;32.33;4.22;;;24.30;99.20;;;;;;4945489;28;20044;-72
2024/01/26 11:13:24;;;;;;;25.38;4.82;;;24.30;99.30;;;;;;4940193;28;20126;-71
2024/01/26 11:15:52;;;;;;;23.05;4.18;;;24.40;99.10;;;;;;4945742;28;20035;-73
2024/01/26 11:18:26;;;;;;;27.42;3.95;;;24.30;99.40;;;;;;4944910;28;20369;-72
2024/01/26 11:20:53;;;;;;;25.15;3.75;;;24.30;99.30;;;;;;4942109;28;20078;-72
2024/01/26 11:23:21;;;;;;;30.42;4.15;;;24.40;99.30;;;;;;4952359;28;20130;-72
2024/01/26 11:25:53;;;;;;;23.00;4.07;;;24.20;99.40;;;;;;4948388;28;20457;-72
2024/01/26 11:28:29;;;;;;;28.63;3.95;;;24.20;99.50;;;;;;4946983;28;20389;-72
2024/01/26 11:31:00;;;;;;;25.15;4.15;;;24.40;99.40;;;;;;4941018;28;20082;-73
2024/01/26 11:33:37;;;;;;;25.15;4.43;;;24.40;99.20;;;;;;4948467;28;20031;-72
2024/01/26 11:36:21;;;;;;;20.80;3.70;;;24.50;99.10;;;;;;4949740;28;20377;-72
2024/01/26 11:38:54;;;;;;;21.77;4.07;;;24.30;99.30;;;;;;4949412;28;20080;-72
2024/01/26 11:41:22;;;;;;;31.75;4.45;;;24.40;99.10;;;;;;4937433;28;20034;-72
2024/01/26 11:43:52;;;;;;;26.67;3.72;;;24.30;99.30;;;;;;4937930;29;20369;-72
2024/01/26 11:46:21;;;;;;;28.08;4.60;;;24.20;99.50;;;;;;4958641;28;20077;-71
2024/01/26 11:48:51;;;;;;;25.45;3.97;;;24.20;99.50;;;;;;4948881;28;20127;-71
2024/01/26 11:51:18;;;;;;;26.73;4.30;;;24.10;99.70;;;;;;4945646;28;20095;-72
2024/01/26 11:53:45;;;;;;;25.23;4.43;;;24.20;99.70;;;;;;4937304;29;20063;-71
2024/01/26 11:56:14;;;;;;;29.67;4.07;;;24.20;99.40;;;;;;4939042;28;20027;-71
2024/01/26 11:58:41;;;;;;;33.25;5.38;;;24.10;99.70;;;;;;4944179;28;20028;-70
2024/01/26 12:01:08;;;;;;;28.33;4.25;;;24.10;99.70;;;;;;4941878;28;20039;-70
2024/01/26 12:03:36;;;;;;;21.30;3.92;;;23.90;99.90;;;;;;4942270;28;20110;-70
2024/01/26 12:06:03;;;;;;;25.27;4.82;;;23.90;99.90;;;;;;4940108;28;20031;-70
2024/01/26 12:08:31;;;;;;;31.80;4.25;;;24.10;99.90;;;;;;4953014;28;20384;-71
2024/01/26 12:11:00;;;;;;;27.23;4.45;;;24.30;99.60;;;;;;4938813;28;20043;-71
2024/01/26 12:13:27;;;;;;;28.92;4.18;;;24.20;99.60;;;;;;4939268;28;20032;-71
2024/01/26 12:15:55;;;;;;;22.38;3.45;;;24.00;99.90;;;;;;4945393;28;20461;-71
2024/01/26 12:18:24;;;;;;;17.90;3.15;;;24.10;99.80;;;;;;4938600;28;20373;-71
2024/01/26 12:20:52;;;;;;;30.88;4.25;;;24.10;99.90;;;;;;4947936;28;20477;-71
2024/01/26 12:23:21;;;;;;;29.30;4.53;;;24.00;99.90;;;;;;4941635;29;20031;-71
2024/01/26 12:25:52;;;;;;;29.38;4.60;;;23.90;99.90;;;;;;4940036;28;20027;-71
2024/01/26 12:28:21;;;;;;;29.38;4.90;;;23.90;99.90;;;;;;4944438;29;20028;-71
2024/01/26 12:30:52;;;;;;;31.50;4.75;;;24.10;99.90;;;;;;4937256;28;20066;-71
2024/01/26 12:33:20;;;;;;;20.42;3.40;;;23.90;99.90;;;;;;4942414;28;20027;-71
2024/01/26 12:35:51;;;;;;;20.30;3.63;;;23.90;99.90;;;;;;4948349;28;20046;-72
2024/01/26 12:38:18;;;;;;;22.98;3.85;;;23.90;99.90;;;;;;4933553;29;20035;-70
2024/01/26 12:40:47;;;;;;;20.65;4.45;;;23.90;99.90;;;;;;4941769;28;20114;-70
2024/01/26 12:43:14;;;;;;;28.20;4.70;;;23.90;99.90;;;;;;4944129;28;20421;-70